createdAt,value
2022-10-29T00:00:52.680Z,83.36
2022-10-29T00:03:20.961Z,83.52
2022-10-29T00:06:05.097Z,84.28
2022-10-29T00:08:34.232Z,84.36
2022-10-29T00:11:14.336Z,84.65
2022-10-29T00:13:41.851Z,84.77
2022-10-29T00:16:14.064Z,85.00
2022-10-29T00:18:41.015Z,84.88
2022-10-29T00:21:10.856Z,85.15
2022-10-29T00:23:37.459Z,84.92
2022-10-29T00:26:05.067Z,85.11
2022-10-29T00:28:31.715Z,85.19
2022-10-29T00:31:05.547Z,85.40
2022-10-29T00:33:32.535Z,85.50
2022-10-29T00:36:01.136Z,85.65
2022-10-29T00:38:28.054Z,85.16
2022-10-29T00:40:55.252Z,85.11
2022-10-29T00:43:23.693Z,85.92
2022-10-29T00:46:12.145Z,85.94
2022-10-29T00:48:50.122Z,86.51
2022-10-29T00:51:17.901Z,86.15
2022-10-29T00:53:52.339Z,86.05
2022-10-29T00:56:18.984Z,86.52
2022-10-29T00:58:45.769Z,86.73
2022-10-29T01:01:12.433Z,86.12
2022-10-29T01:03:39.400Z,85.90
2022-10-29T01:06:06.451Z,86.00
2022-10-29T01:08:33.002Z,85.68
2022-10-29T01:11:25.144Z,85.70
2022-10-29T01:13:57.564Z,86.32
2022-10-29T01:16:50.413Z,86.90
2022-10-29T01:19:35.296Z,86.95
2022-10-29T01:22:10.748Z,86.62
2022-10-29T01:25:08.361Z,86.50
2022-10-29T01:27:55.845Z,86.82
2022-10-29T01:30:53.764Z,87.31
2022-10-29T01:33:46.404Z,86.94
2022-10-29T01:36:16.102Z,86.97
2022-10-29T01:39:03.619Z,87.06
2022-10-29T01:41:39.248Z,87.06
2022-10-29T01:44:11.202Z,87.35
2022-10-29T01:46:45.710Z,87.28
2022-10-29T01:49:15.953Z,87.94
2022-10-29T01:51:43.397Z,87.88
2022-10-29T01:54:11.563Z,88.61
2022-10-29T01:56:38.580Z,88.89
2022-10-29T01:59:14.332Z,89.31
2022-10-29T02:02:02.457Z,89.07
2022-10-29T02:04:41.223Z,89.14
2022-10-29T02:07:31.387Z,88.82
2022-10-29T02:10:04.227Z,90.17
2022-10-29T02:12:34.755Z,89.87
2022-10-29T02:15:07.316Z,90.10
2022-10-29T02:17:34.578Z,90.42
2022-10-29T02:20:10.468Z,90.16
2022-10-29T02:22:37.138Z,89.61
2022-10-29T02:25:04.964Z,89.62
2022-10-29T02:27:31.599Z,90.28
2022-10-29T02:29:58.171Z,89.86
2022-10-29T02:32:24.738Z,90.49
2022-10-29T02:34:51.279Z,90.22
2022-10-29T02:37:17.888Z,90.77
2022-10-29T02:39:44.521Z,90.57
2022-10-29T02:42:11.099Z,91.10
2022-10-29T02:44:39.611Z,91.43
2022-10-29T02:47:06.255Z,90.93
2022-10-29T02:49:32.845Z,90.85
2022-10-29T02:51:59.366Z,90.68
2022-10-29T02:54:26.076Z,90.42
2022-10-29T02:56:52.683Z,90.30
2022-10-29T02:59:19.375Z,90.23
2022-10-29T03:01:49.190Z,90.59
2022-10-29T03:04:15.922Z,90.97
2022-10-29T03:06:42.564Z,90.78
2022-10-29T03:09:09.519Z,91.07
2022-10-29T03:11:36.185Z,91.27
2022-10-29T03:14:02.845Z,91.29
2022-10-29T03:16:29.460Z,91.76
2022-10-29T03:18:55.997Z,93.20
2022-10-29T03:21:22.674Z,93.88
2022-10-29T03:23:51.966Z,93.90
2022-10-29T03:26:27.376Z,95.10
2022-10-29T03:28:55.655Z,96.04
2022-10-29T03:31:25.896Z,96.34
2022-10-29T03:33:58.713Z,96.27
2022-10-29T03:36:25.411Z,96.32
2022-10-29T03:38:55.071Z,95.46
2022-10-29T03:41:24.577Z,94.17
2022-10-29T03:43:51.360Z,92.74
2022-10-29T03:46:18.040Z,91.62
2022-10-29T03:48:44.668Z,91.37
2022-10-29T03:51:11.286Z,92.29
2022-10-29T03:53:38.284Z,93.18
2022-10-29T03:56:05.205Z,93.11
2022-10-29T03:58:31.709Z,93.86
2022-10-29T04:01:00.970Z,94.66
2022-10-29T04:03:30.060Z,94.14
2022-10-29T04:05:57.316Z,93.54
2022-10-29T04:08:23.939Z,93.47
2022-10-29T04:10:51.089Z,92.85
2022-10-29T04:13:18.256Z,93.65
2022-10-29T04:15:44.911Z,94.20
2022-10-29T04:18:11.933Z,93.82
2022-10-29T04:21:05.784Z,93.88
2022-10-29T04:28:59.938Z,93.10
2022-10-29T04:31:26.698Z,93.50
2022-10-29T04:33:53.918Z,92.23
2022-10-29T04:36:20.828Z,92.77
2022-10-29T04:38:47.485Z,92.85
2022-10-29T04:41:14.069Z,92.26
2022-10-29T04:43:40.627Z,92.44
2022-10-29T04:46:07.219Z,93.99
2022-10-29T04:48:33.896Z,94.40
2022-10-29T04:51:00.511Z,93.83
2022-10-29T04:53:27.305Z,93.69
2022-10-29T04:56:01.918Z,93.03
2022-10-29T04:58:29.031Z,93.15
2022-10-29T05:01:01.889Z,92.92
2022-10-29T05:03:31.890Z,93.16
2022-10-29T05:05:58.877Z,92.66
2022-10-29T05:08:25.461Z,92.25
2022-10-29T05:10:52.114Z,93.02
2022-10-29T05:13:18.778Z,92.39
2022-10-29T05:15:53.054Z,92.01
2022-10-29T05:18:20.272Z,92.67
2022-10-29T05:20:48.362Z,93.08
2022-10-29T05:23:15.112Z,93.30
2022-10-29T05:25:42.092Z,92.88
2022-10-29T05:28:14.045Z,93.81
2022-10-29T05:30:41.759Z,93.92
2022-10-29T05:33:09.523Z,94.49
2022-10-29T05:35:36.618Z,94.39
2022-10-29T05:38:06.510Z,94.42
2022-10-29T05:40:33.502Z,93.49
2022-10-29T05:43:00.548Z,94.25
2022-10-29T05:45:27.356Z,93.45
2022-10-29T05:48:01.741Z,94.19
2022-10-29T05:50:29.653Z,94.28
2022-10-29T05:53:04.195Z,93.82
2022-10-29T05:55:31.974Z,94.44
2022-10-29T05:58:00.768Z,94.15
2022-10-29T06:00:29.184Z,93.86
2022-10-29T06:02:56.432Z,94.28
2022-10-29T06:05:23.522Z,93.95
2022-10-29T06:07:56.093Z,94.28
2022-10-29T06:10:24.050Z,93.71
2022-10-29T06:12:50.950Z,93.09
2022-10-29T06:15:17.849Z,93.10
2022-10-29T06:17:45.074Z,92.22
2022-10-29T06:20:13.671Z,91.92
2022-10-29T06:22:40.591Z,92.04
2022-10-29T06:25:08.017Z,92.38
2022-10-29T06:27:34.611Z,91.40
2022-10-29T06:30:01.182Z,91.40
2022-10-29T06:32:27.742Z,90.37
2022-10-29T06:34:54.298Z,91.29
2022-10-29T06:37:20.945Z,91.53
2022-10-29T06:39:47.517Z,92.30
2022-10-29T06:42:14.063Z,92.12
2022-10-29T06:44:40.632Z,91.94
2022-10-29T06:47:07.206Z,91.19
2022-10-29T06:49:33.725Z,90.59
2022-10-29T06:52:00.334Z,90.58
2022-10-29T06:54:26.867Z,90.75
2022-10-29T06:56:53.446Z,90.53
2022-10-29T06:59:19.978Z,89.50
2022-10-29T07:01:46.671Z,89.14
2022-10-29T07:04:13.488Z,88.81
2022-10-29T07:06:40.104Z,88.69
2022-10-29T07:09:06.729Z,88.56
2022-10-29T07:11:33.256Z,88.26
2022-10-29T07:14:00.165Z,87.99
2022-10-29T07:16:26.754Z,87.38
2022-10-29T07:18:53.897Z,86.39
2022-10-29T07:21:20.504Z,85.96
2022-10-29T07:23:47.087Z,86.04
2022-10-29T07:26:13.764Z,86.40
2022-10-29T07:28:40.415Z,85.43
2022-10-29T07:31:07.933Z,85.32
2022-10-29T07:33:34.519Z,85.09
2022-10-29T07:36:01.157Z,84.52
2022-10-29T07:38:27.758Z,84.39
2022-10-29T07:40:54.623Z,84.60
2022-10-29T07:43:21.607Z,84.01
2022-10-29T07:45:49.932Z,83.79
2022-10-29T07:48:16.756Z,82.89
2022-10-29T07:50:46.637Z,83.62
2022-10-29T07:53:14.645Z,83.36
2022-10-29T07:55:41.426Z,82.56
2022-10-29T07:58:11.052Z,81.75
2022-10-29T08:00:39.329Z,81.67
2022-10-29T08:03:06.570Z,81.86
2022-10-29T08:05:33.196Z,81.83
2022-10-29T08:08:00.315Z,80.78
2022-10-29T08:10:27.353Z,81.46
2022-10-29T08:12:56.170Z,80.31
2022-10-29T08:15:23.629Z,81.09
2022-10-29T08:17:50.472Z,79.59
2022-10-29T08:20:17.354Z,79.27
2022-10-29T08:22:44.002Z,79.43
2022-10-29T08:25:10.891Z,79.54
2022-10-29T08:27:37.848Z,79.72
2022-10-29T08:30:05.995Z,78.89
2022-10-29T08:32:32.601Z,79.31
2022-10-29T08:34:59.169Z,79.48
2022-10-29T08:37:25.713Z,78.92
2022-10-29T08:39:52.409Z,78.35
2022-10-29T08:42:31.027Z,78.00
2022-10-29T08:45:14.277Z,78.08
2022-10-29T08:48:17.365Z,77.13
2022-10-29T08:50:47.497Z,76.60
2022-10-29T08:53:37.158Z,77.24
2022-10-29T08:56:07.268Z,77.11
2022-10-29T08:59:12.729Z,77.43
2022-10-29T09:01:39.555Z,76.73
2022-10-29T09:04:26.630Z,76.39
2022-10-29T09:07:21.312Z,76.04
2022-10-29T09:10:20.344Z,76.26
2022-10-29T09:13:09.081Z,75.33
2022-10-29T09:15:45.444Z,75.25
2022-10-29T09:18:30.441Z,75.35
2022-10-29T09:21:01.872Z,75.10
2022-10-29T09:23:37.637Z,74.72
2022-10-29T09:26:07.810Z,75.07
2022-10-29T09:28:50.177Z,74.58
2022-10-29T09:31:16.853Z,74.84
2022-10-29T09:33:49.114Z,73.93
2022-10-29T09:36:18.292Z,74.32
2022-10-29T09:38:57.168Z,73.82
2022-10-29T09:41:27.141Z,74.04
2022-10-29T09:44:02.493Z,74.76
2022-10-29T09:46:36.329Z,74.25
2022-10-29T09:49:26.109Z,73.96
2022-10-29T09:52:00.467Z,73.84
2022-10-29T09:54:29.550Z,73.02
2022-10-29T09:56:57.901Z,73.34
2022-10-29T09:59:44.784Z,72.99
2022-10-29T10:02:25.382Z,72.68
2022-10-29T10:04:54.958Z,73.23
2022-10-29T10:07:21.758Z,73.33
2022-10-29T10:10:02.479Z,73.78
2022-10-29T10:12:38.586Z,73.54
2022-10-29T10:15:21.405Z,73.48
2022-10-29T10:17:55.907Z,72.72
2022-10-29T10:20:32.261Z,73.03
2022-10-29T10:22:59.218Z,72.86
2022-10-29T10:25:37.725Z,72.56
2022-10-29T10:28:22.480Z,72.49
2022-10-29T10:31:04.448Z,72.31
2022-10-29T10:33:32.868Z,71.79
2022-10-29T10:36:07.106Z,71.48
2022-10-29T10:38:49.282Z,71.62
2022-10-29T10:41:23.185Z,70.61
2022-10-29T10:43:49.939Z,70.09
2022-10-29T10:46:54.273Z,70.43
2022-10-29T10:49:36.121Z,70.85
2022-10-29T10:52:05.935Z,72.16
2022-10-29T10:54:39.025Z,72.46
2022-10-29T10:57:11.674Z,71.78
2022-10-29T10:59:59.707Z,72.25
2022-10-29T11:02:53.018Z,71.31
2022-10-29T11:05:29.858Z,71.18
2022-10-29T11:08:08.683Z,71.67
2022-10-29T11:10:47.978Z,71.93
2022-10-29T11:13:16.698Z,72.23
2022-10-29T11:16:04.517Z,76.63
2022-10-29T11:18:36.750Z,72.42
2022-10-29T11:21:32.268Z,71.85
2022-10-29T11:24:05.920Z,71.47
2022-10-29T11:26:37.675Z,70.89
2022-10-29T11:29:29.241Z,70.62
2022-10-29T11:32:06.196Z,71.06
2022-10-29T11:34:39.240Z,71.36
2022-10-29T11:37:18.509Z,71.54
2022-10-29T11:40:12.342Z,71.29
2022-10-29T11:42:39.321Z,70.82
2022-10-29T11:45:10.627Z,70.16
2022-10-29T11:47:49.473Z,69.77
2022-10-29T11:50:26.104Z,69.56
2022-10-29T11:53:06.204Z,70.16
2022-10-29T11:55:55.715Z,68.85
2022-10-29T11:58:41.180Z,68.93
2022-10-29T12:01:20.034Z,68.96
2022-10-29T12:03:51.518Z,68.89
2022-10-29T12:06:46.519Z,68.88
2022-10-29T12:09:50.269Z,68.00
2022-10-29T12:12:19.871Z,67.11
2022-10-29T12:15:09.316Z,67.67
2022-10-29T12:18:16.589Z,67.23
2022-10-29T12:20:48.766Z,66.69
2022-10-29T12:23:44.093Z,66.07
2022-10-29T12:26:21.212Z,66.28
2022-10-29T12:29:02.757Z,65.89
2022-10-29T12:32:01.227Z,66.55
2022-10-29T12:34:30.412Z,65.82
2022-10-29T12:37:11.957Z,64.66
2022-10-29T12:39:42.355Z,64.95
2022-10-29T12:42:23.510Z,63.80
2022-10-29T12:45:01.185Z,67.79
2022-10-29T12:47:50.333Z,65.40
2022-10-29T12:50:51.638Z,64.38
2022-10-29T12:53:33.726Z,64.14
2022-10-29T12:56:09.075Z,63.79
2022-10-29T12:58:53.352Z,64.02
2022-10-29T13:01:38.292Z,63.76
2022-10-29T13:04:31.914Z,64.06
2022-10-29T13:09:48.432Z,65.57
2022-10-29T13:12:54.035Z,65.77
2022-10-29T13:15:28.947Z,65.50
2022-10-29T13:17:56.264Z,64.98
2022-10-29T13:20:43.325Z,65.40
2022-10-29T13:23:22.145Z,64.41
2022-10-29T13:25:49.337Z,64.97
2022-10-29T13:28:15.933Z,65.08
2022-10-29T13:30:44.612Z,64.89
2022-10-29T13:33:20.402Z,64.91
2022-10-29T13:36:27.675Z,65.46
2022-10-29T13:39:08.938Z,65.56
2022-10-29T13:44:20.584Z,65.16
2022-10-29T13:47:22.427Z,64.80
2022-10-29T13:49:49.841Z,64.33
2022-10-29T13:52:19.393Z,64.64
2022-10-29T13:54:56.080Z,65.01
2022-10-29T13:57:25.919Z,65.78
2022-10-29T14:00:07.370Z,65.36
2022-10-29T14:02:38.946Z,65.88
2022-10-29T14:05:05.848Z,65.41
2022-10-29T14:08:12.211Z,65.14
2022-10-29T14:10:41.735Z,64.68
2022-10-29T14:13:14.407Z,64.99
2022-10-29T14:16:07.379Z,65.30
2022-10-29T14:18:39.025Z,66.27
2022-10-29T14:21:11.775Z,65.89
2022-10-29T14:23:40.964Z,66.02
2022-10-29T14:26:27.099Z,67.08
2022-10-29T14:29:34.625Z,66.92
2022-10-29T14:32:18.500Z,67.73
2022-10-29T14:34:47.905Z,67.35
2022-10-29T14:37:26.266Z,68.54
2022-10-29T14:40:01.055Z,68.54
2022-10-29T14:42:29.844Z,68.28
2022-10-29T14:45:05.395Z,67.68
2022-10-29T14:47:34.189Z,67.76
2022-10-29T14:50:03.669Z,67.23
2022-10-29T14:52:33.154Z,67.88
2022-10-29T14:55:14.455Z,67.43
2022-10-29T14:57:46.013Z,68.53
2022-10-29T15:00:23.791Z,68.27
2022-10-29T15:02:50.909Z,68.12
2022-10-29T15:05:22.912Z,68.75
2022-10-29T15:07:49.856Z,68.95
2022-10-29T15:10:20.837Z,68.51
2022-10-29T15:12:48.411Z,68.52
2022-10-29T15:15:18.748Z,67.70
2022-10-29T15:17:51.655Z,68.42
2022-10-29T15:20:24.282Z,68.46
2022-10-29T15:22:55.823Z,68.18
2022-10-29T15:25:33.174Z,68.83
2022-10-29T15:28:00.450Z,68.68
2022-10-29T15:30:35.701Z,68.91
2022-10-29T15:33:08.220Z,68.39
2022-10-29T15:35:36.518Z,69.30
2022-10-29T15:38:03.997Z,69.19
2022-10-29T15:40:30.928Z,68.43
2022-10-29T15:43:30.042Z,69.06
2022-10-29T15:45:58.535Z,69.81
2022-10-29T15:48:36.050Z,69.22
2022-10-29T15:51:04.299Z,69.33
2022-10-29T15:53:30.903Z,69.55
2022-10-29T15:55:58.213Z,69.16
2022-10-29T15:58:28.033Z,69.00
2022-10-29T16:00:54.661Z,68.72
2022-10-29T16:03:23.249Z,69.02
2022-10-29T16:05:52.282Z,68.41
2022-10-29T16:08:19.683Z,68.70
2022-10-29T16:10:46.975Z,68.51
2022-10-29T16:13:13.898Z,68.08
2022-10-29T16:15:43.300Z,67.75
2022-10-29T16:18:11.097Z,68.43
2022-10-29T16:20:37.708Z,67.20
2022-10-29T16:23:04.283Z,67.17
2022-10-29T16:25:30.994Z,67.17
2022-10-29T16:27:57.717Z,67.30
2022-10-29T16:30:24.850Z,67.11
2022-10-29T16:32:52.482Z,67.72
2022-10-29T16:35:24.378Z,67.48
2022-10-29T16:37:51.945Z,67.37
2022-10-29T16:40:19.989Z,68.11
2022-10-29T16:42:47.590Z,68.11
2022-10-29T16:45:29.966Z,67.70
2022-10-29T16:47:57.698Z,67.63
2022-10-29T16:50:29.629Z,67.57
2022-10-29T16:53:12.433Z,67.75
2022-10-29T16:55:40.330Z,67.55
2022-10-29T16:58:09.625Z,68.12
2022-10-29T17:00:36.745Z,68.04
2022-10-29T17:03:11.192Z,68.14
2022-10-29T17:05:40.443Z,68.12
2022-10-29T17:08:07.597Z,68.04
2022-10-29T17:10:34.898Z,68.08
2022-10-29T17:13:02.131Z,68.14
2022-10-29T17:15:29.365Z,69.49
2022-10-29T17:17:56.390Z,68.72
2022-10-29T17:20:25.987Z,68.32
2022-10-29T17:22:52.992Z,68.03
2022-10-29T17:25:19.619Z,71.03
2022-10-29T17:27:46.241Z,68.65
2022-10-29T17:30:15.170Z,67.12
2022-10-29T17:32:41.824Z,66.56
2022-10-29T17:35:08.724Z,66.49
2022-10-29T17:37:55.567Z,66.41
2022-10-29T17:40:24.067Z,66.55
2022-10-29T17:42:50.615Z,66.82
2022-10-29T17:45:25.535Z,66.42
2022-10-29T17:47:56.265Z,66.25
2022-10-29T17:50:27.412Z,66.49
2022-10-29T17:52:54.742Z,66.30
2022-10-29T17:55:21.397Z,65.97
2022-10-29T17:57:48.000Z,66.78
2022-10-29T18:00:14.992Z,67.06
2022-10-29T18:02:41.739Z,66.59
2022-10-29T18:05:08.645Z,66.95
2022-10-29T18:07:35.289Z,67.48
2022-10-29T18:10:01.838Z,65.77
2022-10-29T18:12:28.435Z,66.35
2022-10-29T18:14:55.105Z,66.08
2022-10-29T18:17:42.615Z,65.68
2022-10-29T18:20:10.179Z,66.43
2022-10-29T18:22:36.757Z,66.13
2022-10-29T18:25:03.755Z,64.58
2022-10-29T18:27:30.371Z,64.67
2022-10-29T18:29:57.087Z,64.48
2022-10-29T18:32:23.830Z,63.91
2022-10-29T18:34:53.202Z,64.13
2022-10-29T18:37:19.926Z,63.54
2022-10-29T18:39:46.566Z,64.48
2022-10-29T18:42:13.288Z,63.46
2022-10-29T18:44:39.866Z,63.45
2022-10-29T18:47:06.468Z,63.08
2022-10-29T18:49:33.134Z,62.81
2022-10-29T18:51:59.911Z,62.39
2022-10-29T18:54:26.678Z,61.83
2022-10-29T18:56:53.398Z,62.39
2022-10-29T18:59:20.107Z,61.95
2022-10-29T19:01:46.872Z,61.79
2022-10-29T19:04:19.084Z,61.57
2022-10-29T19:06:48.190Z,61.37
2022-10-29T19:09:15.055Z,60.96
2022-10-29T19:11:41.699Z,61.13
2022-10-29T19:14:12.142Z,60.87
2022-10-29T19:16:39.422Z,60.94
2022-10-29T19:19:10.050Z,61.16
2022-10-29T19:21:37.797Z,60.74
2022-10-29T19:24:04.983Z,60.97
2022-10-29T19:26:33.625Z,60.29
2022-10-29T19:29:01.513Z,60.50
2022-10-29T19:31:29.791Z,60.21
2022-10-29T19:33:59.038Z,60.26
2022-10-29T19:36:26.986Z,60.80
2022-10-29T19:38:54.189Z,60.44
2022-10-29T19:41:23.519Z,61.09
2022-10-29T19:43:56.034Z,60.17
2022-10-29T19:46:24.328Z,60.41
2022-10-29T19:49:00.195Z,60.09
2022-10-29T19:51:27.127Z,60.64
2022-10-29T19:53:54.484Z,60.77
2022-10-29T19:56:21.598Z,60.87
2022-10-29T19:58:50.940Z,61.37
2022-10-29T20:01:19.013Z,61.45
2022-10-29T20:03:46.970Z,61.41
2022-10-29T20:06:14.537Z,61.47
2022-10-29T20:08:41.810Z,61.26
2022-10-29T20:11:08.484Z,60.95
2022-10-29T20:13:37.668Z,61.69
2022-10-29T20:16:14.071Z,61.66
2022-10-29T20:18:40.763Z,61.68
2022-10-29T20:21:07.865Z,61.43
2022-10-29T20:23:34.863Z,61.62
2022-10-29T20:26:01.621Z,62.31
2022-10-29T20:31:37.207Z,62.02
2022-10-29T20:34:09.189Z,62.00
2022-10-29T20:36:36.014Z,61.79
2022-10-29T20:39:02.811Z,61.02
2022-10-29T20:41:29.795Z,61.36
2022-10-29T20:44:02.344Z,61.53
2022-10-29T20:46:29.779Z,61.44
2022-10-29T20:48:56.507Z,61.14
2022-10-29T20:51:23.720Z,61.15
2022-10-29T20:53:51.283Z,61.24
2022-10-29T20:56:23.386Z,61.71
2022-10-29T20:58:50.324Z,60.79
2022-10-29T21:01:19.345Z,60.94
2022-10-29T21:03:47.865Z,60.54
2022-10-29T21:06:17.869Z,60.78
2022-10-29T21:08:48.559Z,60.52
2022-10-29T21:11:16.563Z,60.90
2022-10-29T21:13:43.423Z,62.50
2022-10-29T21:16:22.748Z,62.51
2022-10-29T21:18:51.757Z,62.60
2022-10-29T21:21:18.896Z,62.77
2022-10-29T21:23:45.873Z,66.16
2022-10-29T21:26:23.180Z,62.67
2022-10-29T21:28:50.700Z,62.33
2022-10-29T21:31:19.998Z,62.14
2022-10-29T21:33:49.891Z,62.25
2022-10-29T21:36:16.559Z,62.36
2022-10-29T21:38:43.276Z,62.00
2022-10-29T21:41:09.938Z,61.98
2022-10-29T21:43:37.892Z,61.89
2022-10-29T21:46:04.520Z,62.11
2022-10-29T21:48:32.795Z,61.68
2022-10-29T21:51:06.521Z,61.99
2022-10-29T21:53:33.614Z,61.96
2022-10-29T21:56:01.971Z,61.82
2022-10-29T21:58:28.719Z,61.70
2022-10-29T22:01:21.874Z,62.14
2022-10-29T22:03:48.554Z,62.27
2022-10-29T22:06:20.598Z,62.47
2022-10-29T22:08:51.849Z,63.48
2022-10-29T22:11:18.398Z,63.36
2022-10-29T22:13:45.007Z,63.41
2022-10-29T22:16:12.143Z,63.19
2022-10-29T22:18:39.422Z,63.18
2022-10-29T22:21:12.991Z,63.99
2022-10-29T22:23:47.396Z,63.87
2022-10-29T22:26:17.400Z,62.93
2022-10-29T22:28:44.481Z,63.04
2022-10-29T22:31:11.434Z,62.70
2022-10-29T22:33:38.460Z,62.58
2022-10-29T22:36:07.991Z,62.45
2022-10-29T22:38:34.723Z,62.13
2022-10-29T22:41:12.877Z,61.88
2022-10-29T22:43:40.071Z,62.30
2022-10-29T22:46:07.933Z,62.39
2022-10-29T22:48:35.192Z,62.90
2022-10-29T22:51:12.732Z,62.77
2022-10-29T22:53:39.340Z,62.26
2022-10-29T22:56:06.603Z,62.47
2022-10-29T22:58:33.420Z,62.36
2022-10-29T23:01:07.650Z,62.30
2022-10-29T23:03:35.137Z,62.03
2022-10-29T23:06:03.763Z,62.24
2022-10-29T23:08:31.234Z,62.65
2022-10-29T23:10:58.712Z,62.52
2022-10-29T23:13:25.319Z,62.65
2022-10-29T23:15:52.969Z,62.67
2022-10-29T23:18:19.818Z,62.82
2022-10-29T23:20:46.585Z,62.96
2022-10-29T23:23:13.742Z,62.71
2022-10-29T23:25:41.719Z,63.13
2022-10-29T23:28:09.081Z,63.08
2022-10-29T23:30:35.720Z,62.97
2022-10-29T23:33:02.257Z,63.06
2022-10-29T23:35:28.867Z,63.59
2022-10-29T23:37:55.767Z,63.63
2022-10-29T23:40:22.572Z,63.84
2022-10-29T23:42:49.177Z,64.00
2022-10-29T23:45:16.995Z,63.95
2022-10-29T23:47:43.739Z,63.82
2022-10-29T23:50:10.364Z,63.88
2022-10-29T23:52:37.115Z,64.19
2022-10-29T23:55:04.014Z,64.29
2022-10-29T23:57:30.761Z,64.03
2022-10-29T23:59:57.532Z,64.28
